createdAt,value
2022-08-05T00:00:11.735Z,19.00
2022-08-05T00:06:06.633Z,19.08
2022-08-05T00:11:30.270Z,19.13
2022-08-05T00:16:36.313Z,19.35
2022-08-05T00:21:57.468Z,19.50
2022-08-05T00:27:00.681Z,19.59
2022-08-05T00:32:13.456Z,19.60
2022-08-05T00:37:20.333Z,19.73
2022-08-05T00:42:33.645Z,19.75
2022-08-05T00:47:56.706Z,19.77
2022-08-05T00:53:01.615Z,19.82
2022-08-05T00:58:04.877Z,19.79
2022-08-05T01:03:08.251Z,19.80
2022-08-05T01:08:30.768Z,19.84
2022-08-05T01:13:57.720Z,19.82
2022-08-05T01:19:14.188Z,19.73
2022-08-05T01:24:52.575Z,19.72
2022-08-05T01:30:02.891Z,19.72
2022-08-05T01:35:10.624Z,19.68
2022-08-05T01:40:17.974Z,19.62
2022-08-05T01:45:23.826Z,19.57
2022-08-05T01:50:31.393Z,19.58
2022-08-05T01:55:36.800Z,19.42
2022-08-05T02:00:44.623Z,19.39
2022-08-05T02:05:49.501Z,19.29
2022-08-05T02:11:05.384Z,19.27
2022-08-05T02:16:17.854Z,19.18
2022-08-05T02:21:30.441Z,19.18
2022-08-05T02:26:51.878Z,19.10
2022-08-05T02:31:59.684Z,19.12
2022-08-05T02:37:10.916Z,19.01
2022-08-05T02:42:27.633Z,19.08
2022-08-05T02:48:07.341Z,19.01
2022-08-05T02:53:01.232Z,18.98
2022-08-05T02:58:09.248Z,19.07
2022-08-05T03:03:25.858Z,18.96
2022-08-05T03:08:30.133Z,18.99
2022-08-05T03:13:51.630Z,19.00
2022-08-05T03:18:57.817Z,18.96
2022-08-05T03:24:02.438Z,18.93
2022-08-05T03:29:06.306Z,18.86
2022-08-05T03:34:17.316Z,18.98
2022-08-05T03:39:27.300Z,19.07
2022-08-05T03:44:30.937Z,19.14
2022-08-05T03:49:51.911Z,19.17
2022-08-05T03:56:01.952Z,19.25
2022-08-05T04:00:30.018Z,19.37
2022-08-05T04:05:36.405Z,19.44
2022-08-05T04:10:45.657Z,19.41
2022-08-05T04:16:03.362Z,19.44
2022-08-05T04:21:11.071Z,19.62
2022-08-05T04:26:15.013Z,19.65
2022-08-05T04:31:20.658Z,19.73
2022-08-05T04:36:45.986Z,19.68
2022-08-05T04:41:51.223Z,19.87
2022-08-05T04:46:54.406Z,19.81
2022-08-05T04:52:00.393Z,19.97
2022-08-05T04:57:03.940Z,19.95
2022-08-05T05:02:37.468Z,20.13
2022-08-05T05:07:35.312Z,20.22
2022-08-05T05:12:38.951Z,20.39
2022-08-05T05:17:55.703Z,20.62
2022-08-05T05:23:06.935Z,20.80
2022-08-05T05:28:12.342Z,20.92
2022-08-05T05:33:17.102Z,21.47
2022-08-05T05:38:27.450Z,22.10
2022-08-05T05:43:56.707Z,22.43
2022-08-05T05:48:53.911Z,22.84
2022-08-05T05:54:00.046Z,23.42
2022-08-05T05:59:05.350Z,23.73
2022-08-05T06:04:12.188Z,23.61
2022-08-05T06:09:25.944Z,23.68
2022-08-05T06:14:40.154Z,24.09
2022-08-05T06:19:43.501Z,24.15
2022-08-05T06:25:01.543Z,24.46
2022-08-05T06:30:27.337Z,24.56
2022-08-05T06:36:05.746Z,24.87
2022-08-05T06:40:55.723Z,25.14
2022-08-05T06:46:06.716Z,25.31
2022-08-05T06:51:11.994Z,25.47
2022-08-05T06:56:29.267Z,25.65
2022-08-05T07:01:32.999Z,25.82
2022-08-05T07:06:36.179Z,25.99
2022-08-05T07:11:40.949Z,26.10
2022-08-05T07:17:58.981Z,26.32
2022-08-05T07:22:15.839Z,26.49
2022-08-05T07:27:21.615Z,26.73
2022-08-05T07:32:26.306Z,26.82
2022-08-05T07:37:37.606Z,26.97
2022-08-05T07:42:44.095Z,27.09
2022-08-05T07:47:47.188Z,27.22
2022-08-05T07:52:50.563Z,27.31
2022-08-05T07:58:02.829Z,27.37
2022-08-05T08:03:14.010Z,27.44
2022-08-05T08:08:20.083Z,27.69
2022-08-05T08:13:29.212Z,27.85
2022-08-05T08:18:32.959Z,27.97
2022-08-05T08:24:02.013Z,28.04
2022-08-05T08:30:03.075Z,28.23
2022-08-05T08:34:30.367Z,28.38
2022-08-05T08:39:37.444Z,28.58
2022-08-05T08:45:20.552Z,28.63
2022-08-05T08:50:32.239Z,28.48
2022-08-05T08:56:02.814Z,28.72
2022-08-05T09:00:57.934Z,28.92
2022-08-05T09:06:08.901Z,28.83
2022-08-05T09:11:15.535Z,28.99
2022-08-05T09:16:20.740Z,29.17
2022-08-05T09:22:28.720Z,29.26
2022-08-05T09:26:56.708Z,29.24
2022-08-05T09:32:41.741Z,29.35
2022-08-05T09:38:12.210Z,29.26
2022-08-05T09:42:53.951Z,29.45
2022-08-05T09:47:58.981Z,29.58
2022-08-05T09:53:02.204Z,29.60
2022-08-05T09:58:11.404Z,29.68
2022-08-05T10:03:15.987Z,29.79
2022-08-05T10:08:37.652Z,29.74
2022-08-05T10:13:43.947Z,29.76
2022-08-05T10:18:52.117Z,29.83
2022-08-05T10:24:00.455Z,29.79
2022-08-05T10:29:03.890Z,29.77
2022-08-05T10:34:10.186Z,29.82
2022-08-05T10:39:24.455Z,29.95
2022-08-05T10:44:45.187Z,30.02
2022-08-05T10:50:20.533Z,30.01
2022-08-05T10:56:14.559Z,30.04
2022-08-05T11:01:55.068Z,29.92
2022-08-05T11:07:08.476Z,30.03
2022-08-05T11:12:42.586Z,30.07
2022-08-05T11:17:57.233Z,30.10
2022-08-05T11:24:04.207Z,30.21
2022-08-05T11:29:12.331Z,30.24
2022-08-05T11:34:36.969Z,30.22
2022-08-05T11:40:00.733Z,30.22
2022-08-05T11:45:26.766Z,30.24
2022-08-05T11:50:38.441Z,30.45
2022-08-05T11:55:56.033Z,30.51
2022-08-05T12:01:03.271Z,30.55
2022-08-05T12:06:12.368Z,30.57
2022-08-05T12:11:20.750Z,30.52
2022-08-05T12:16:27.243Z,30.53
2022-08-05T12:21:33.631Z,30.53
2022-08-05T12:26:46.056Z,30.50
2022-08-05T12:31:53.075Z,30.55
2022-08-05T12:36:58.277Z,30.49
2022-08-05T12:42:03.680Z,30.56
2022-08-05T12:47:07.577Z,30.61
2022-08-05T12:52:25.312Z,30.66
2022-08-05T12:58:38.748Z,30.72
2022-08-05T13:03:02.005Z,30.68
2022-08-05T13:08:08.778Z,30.70
2022-08-05T13:14:06.643Z,30.76
2022-08-05T13:18:39.920Z,30.78
2022-08-05T13:23:50.680Z,30.77
2022-08-05T13:28:56.647Z,30.83
2022-08-05T13:34:22.240Z,30.83
2022-08-05T13:40:12.771Z,30.80
2022-08-05T13:44:47.749Z,30.81
2022-08-05T13:49:51.697Z,30.84
2022-08-05T13:54:54.753Z,30.90
2022-08-05T14:00:02.021Z,30.85
2022-08-05T14:05:15.350Z,30.91
2022-08-05T14:10:31.133Z,30.86
2022-08-05T14:16:07.938Z,30.94
2022-08-05T14:21:00.274Z,30.94
2022-08-05T14:26:36.812Z,30.96
2022-08-05T14:32:02.949Z,30.96
2022-08-05T14:37:08.873Z,30.95
2022-08-05T14:42:21.157Z,30.96
2022-08-05T14:48:02.513Z,30.95
2022-08-05T14:52:53.505Z,30.96
2022-08-05T14:58:02.142Z,30.99
2022-08-05T15:03:16.136Z,31.01
2022-08-05T15:08:58.513Z,31.08
2022-08-05T15:13:45.871Z,31.18
2022-08-05T15:18:54.913Z,31.14
2022-08-05T15:23:57.865Z,31.06
2022-08-05T15:29:02.542Z,30.96
2022-08-05T15:34:31.694Z,30.99
2022-08-05T15:41:00.284Z,30.78
2022-08-05T15:44:55.228Z,30.55
2022-08-05T15:49:59.974Z,30.76
2022-08-05T15:55:03.965Z,30.80
2022-08-05T16:00:09.008Z,30.86
2022-08-05T16:05:16.444Z,30.75
2022-08-05T16:10:25.290Z,30.57
2022-08-05T16:15:32.489Z,30.68
2022-08-05T16:20:38.508Z,30.59
2022-08-05T16:25:41.537Z,30.53
2022-08-05T16:30:44.672Z,30.39
2022-08-05T16:35:52.899Z,30.37
2022-08-05T16:41:00.147Z,30.79
2022-08-05T16:46:13.090Z,31.53
2022-08-05T16:51:30.751Z,32.09
2022-08-05T16:56:45.679Z,31.72
2022-08-05T17:01:55.867Z,31.21
2022-08-05T17:07:03.146Z,30.68
2022-08-05T17:12:07.377Z,30.24
2022-08-05T17:17:15.165Z,29.95
2022-08-05T17:22:25.625Z,29.72
2022-08-05T17:27:33.759Z,29.48
2022-08-05T17:32:38.376Z,29.23
2022-08-05T17:37:48.520Z,29.01
2022-08-05T17:42:53.010Z,28.85
2022-08-05T17:47:56.866Z,28.67
2022-08-05T17:53:03.145Z,28.49
2022-08-05T17:58:12.712Z,28.34
2022-08-05T18:03:39.291Z,28.14
2022-08-05T18:08:44.789Z,27.91
2022-08-05T18:13:48.941Z,27.70
2022-08-05T18:18:52.199Z,27.46
2022-08-05T18:23:57.157Z,27.24
2022-08-05T18:29:01.404Z,27.00
2022-08-05T18:34:05.754Z,26.81
2022-08-05T18:39:42.380Z,26.60
2022-08-05T18:44:35.427Z,26.52
2022-08-05T18:50:11.022Z,26.31
2022-08-05T18:55:16.521Z,25.97
2022-08-05T19:00:21.081Z,25.76
2022-08-05T19:06:13.495Z,25.62
2022-08-05T19:10:59.605Z,25.53
2022-08-05T19:16:24.307Z,25.53
2022-08-05T19:21:34.734Z,25.30
2022-08-05T19:26:54.485Z,25.08
2022-08-05T19:31:58.555Z,24.89
2022-08-05T19:37:01.518Z,24.77
2022-08-05T19:42:09.227Z,24.86
2022-08-05T19:47:15.321Z,24.90
2022-08-05T19:52:31.574Z,24.86
2022-08-05T19:57:49.145Z,24.90
2022-08-05T20:03:00.120Z,24.95
2022-08-05T20:08:03.354Z,24.99
2022-08-05T20:13:09.306Z,25.04
2022-08-05T20:18:33.252Z,24.99
2022-08-05T20:23:40.502Z,25.05
2022-08-05T20:29:00.696Z,25.01
2022-08-05T20:34:04.067Z,24.95
2022-08-05T20:39:07.512Z,24.90
2022-08-05T20:44:30.639Z,24.77
2022-08-05T20:49:39.743Z,24.73
2022-08-05T20:55:55.025Z,24.66
2022-08-05T21:00:35.082Z,24.65
2022-08-05T21:05:48.306Z,24.61
2022-08-05T21:10:58.536Z,24.56
2022-08-05T21:16:03.580Z,24.48
2022-08-05T21:21:07.228Z,24.44
2022-08-05T21:26:14.433Z,24.39
2022-08-05T21:31:20.095Z,24.38
2022-08-05T21:36:30.056Z,24.32
2022-08-05T21:41:35.862Z,24.20
2022-08-05T21:46:40.593Z,24.15
2022-08-05T21:52:21.786Z,24.09
2022-08-05T21:57:30.679Z,24.00
2022-08-05T22:02:34.326Z,24.01
2022-08-05T22:07:39.880Z,24.00
2022-08-05T22:13:08.751Z,23.89
2022-08-05T22:18:14.679Z,23.88
2022-08-05T22:24:02.867Z,23.82
2022-08-05T22:28:59.212Z,23.82
2022-08-05T22:34:04.091Z,23.71
2022-08-05T22:39:09.573Z,23.67
2022-08-05T22:44:12.911Z,23.64
2022-08-05T22:50:17.395Z,23.59
2022-08-05T22:54:40.975Z,23.51
2022-08-05T22:59:54.074Z,23.46
2022-08-05T23:05:01.910Z,23.39
2022-08-05T23:10:09.346Z,23.26
2022-08-05T23:15:12.559Z,23.28
2022-08-05T23:20:18.169Z,23.21
2022-08-05T23:25:52.569Z,23.17
2022-08-05T23:30:53.361Z,23.18
2022-08-05T23:35:58.351Z,23.12
2022-08-05T23:41:02.346Z,23.03
2022-08-05T23:46:20.971Z,22.98
2022-08-05T23:51:26.639Z,22.97
2022-08-05T23:56:32.179Z,22.96
